Time;durP1;ratioP1;P1;durP2;ratioP2;P2;SDS_P1;SDS_P2;PMS_P1;PMS_P2;Temp;Humidity;BMP_temperature;BMP_pressure;BME280_temperature;BME280_humidity;BME280_pressure;Samples;Min_cycle;Max_cycle;Signal;HPM_P1;HPM_P2
2022/09/18 00:02:03;;;;;;;0.20;0.20;;;7.70;99.90;;;;;;5093670;28;20020;-73
2022/09/18 00:04:29;;;;;;;0.17;0.17;;;7.70;99.90;;;;;;5093588;28;20503;-73
2022/09/18 00:06:56;;;;;;;0.25;0.25;;;7.80;99.90;;;;;;5092664;28;20480;-73
2022/09/18 00:09:22;;;;;;;3.08;2.00;;;7.90;99.90;;;;;;5093373;28;20032;-73
2022/09/18 00:11:49;;;;;;;0.25;0.25;;;7.90;99.90;;;;;;5093459;28;20472;-73
2022/09/18 00:14:22;;;;;;;0.10;0.10;;;7.90;99.90;;;;;;5093296;28;20117;-73
2022/09/18 00:16:48;;;;;;;0.20;0.20;;;7.90;99.90;;;;;;5093214;28;20032;-73
2022/09/18 00:19:15;;;;;;;0.40;0.40;;;7.80;99.90;;;;;;5093348;28;20035;-73
2022/09/18 00:21:43;;;;;;;0.32;0.32;;;7.80;99.90;;;;;;5092244;28;20028;-73
2022/09/18 00:24:10;;;;;;;0.20;0.20;;;8.00;99.90;;;;;;5092065;28;20480;-73
2022/09/18 00:26:36;;;;;;;0.10;0.10;;;8.00;99.90;;;;;;5093007;28;20548;-73
2022/09/18 00:29:03;;;;;;;0.10;0.10;;;8.10;99.90;;;;;;5093280;28;20073;-73
2022/09/18 00:31:32;;;;;;;0.10;0.10;;;8.10;99.90;;;;;;5093046;28;20020;-73
2022/09/18 00:34:00;;;;;;;0.30;0.30;;;8.10;99.90;;;;;;5091789;28;20047;-72
2022/09/18 00:36:26;;;;;;;0.15;0.15;;;8.10;99.90;;;;;;5092925;28;20480;-73
2022/09/18 00:38:52;;;;;;;0.10;0.10;;;8.10;99.90;;;;;;5093119;28;20056;-74
2022/09/18 00:41:23;;;;;;;0.30;0.28;;;8.10;99.90;;;;;;5092924;28;20024;-73
2022/09/18 00:43:50;;;;;;;0.20;0.20;;;8.10;99.90;;;;;;5092839;28;20047;-73
2022/09/18 00:46:30;;;;;;;0.20;0.20;;;8.10;99.90;;;;;;5091331;28;20016;-73
2022/09/18 00:49:23;;;;;;;0.30;0.30;;;8.10;99.90;;;;;;5092993;28;20090;-72
2022/09/18 00:51:52;;;;;;;0.20;0.20;;;8.10;99.90;;;;;;5092809;28;20045;-73
2022/09/18 00:54:22;;;;;;;0.20;0.20;;;8.00;99.90;;;;;;5091658;28;20135;-73
2022/09/18 00:56:51;;;;;;;0.10;0.10;;;8.00;99.90;;;;;;5092457;28;20036;-73
2022/09/18 00:59:24;;;;;;;0.20;0.20;;;8.10;99.90;;;;;;5092647;28;20043;-73
2022/09/18 01:01:50;;;;;;;0.10;0.10;;;8.10;99.90;;;;;;5092518;28;20011;-73
2022/09/18 01:04:16;;;;;;;0.10;0.10;;;8.20;99.90;;;;;;5092444;28;20028;-73
2022/09/18 01:06:45;;;;;;;1.65;0.65;;;8.30;99.90;;;;;;5092260;28;20102;-73
2022/09/18 01:09:43;;;;;;;0.13;0.13;;;8.20;99.90;;;;;;5092469;28;20030;-73
2022/09/18 01:12:34;;;;;;;0.20;0.20;;;8.20;99.90;;;;;;5055937;28;20406;-73
2022/09/18 01:15:12;;;;;;;0.20;0.20;;;8.20;99.90;;;;;;5092098;28;20024;-73
2022/09/18 01:17:50;;;;;;;0.20;0.20;;;8.20;99.90;;;;;;5092519;28;20032;-72
2022/09/18 01:20:29;;;;;;;0.20;0.20;;;8.20;99.90;;;;;;5092253;28;20090;-73
2022/09/18 01:23:40;;;;;;;0.17;0.17;;;8.00;99.90;;;;;;5090941;28;20027;-73
2022/09/18 01:26:30;;;;;;;0.10;0.10;;;8.00;99.90;;;;;;5081764;28;20028;-73
2022/09/18 01:29:40;;;;;;;0.20;0.20;;;8.10;99.90;;;;;;5092125;28;20055;-73
2022/09/18 01:32:19;;;;;;;0.10;0.10;;;8.20;99.90;;;;;;5086343;28;20054;-72
2022/09/18 01:34:57;;;;;;;0.20;0.20;;;8.10;99.90;;;;;;5092161;28;20422;-73
2022/09/18 01:37:38;;;;;;;0.10;0.10;;;8.30;99.90;;;;;;5092149;28;20028;-73
2022/09/18 01:40:27;;;;;;;0.10;0.10;;;8.30;99.90;;;;;;5092122;28;20020;-73
2022/09/18 01:42:57;;;;;;;0.20;0.20;;;8.20;99.90;;;;;;5091898;28;20036;-73
2022/09/18 01:45:31;;;;;;;0.10;0.10;;;8.30;99.90;;;;;;5090644;28;20032;-73
2022/09/18 01:48:00;;;;;;;0.20;0.20;;;8.40;99.90;;;;;;5092053;28;20084;-73
2022/09/18 01:50:29;;;;;;;0.30;0.30;;;8.40;99.90;;;;;;5092011;28;20020;-73
2022/09/18 01:52:58;;;;;;;0.10;0.10;;;8.30;99.90;;;;;;5091734;28;20389;-73
2022/09/18 01:55:27;;;;;;;0.15;0.15;;;8.40;99.90;;;;;;5091759;28;20028;-73
2022/09/18 01:58:05;;;;;;;0.77;0.70;;;8.30;99.90;;;;;;5091982;28;20028;-72
2022/09/18 02:00:31;;;;;;;0.20;0.20;;;8.20;99.90;;;;;;5090702;28;20360;-72
2022/09/18 02:03:09;;;;;;;2.25;1.23;;;8.20;99.90;;;;;;5091850;28;20027;-72
2022/09/18 02:05:41;;;;;;;0.30;0.30;;;8.20;99.90;;;;;;5091729;28;20489;-72
2022/09/18 02:08:12;;;;;;;0.28;0.28;;;8.00;99.90;;;;;;5090557;28;20016;-73
2022/09/18 02:10:43;;;;;;;0.20;0.20;;;8.10;99.90;;;;;;5090476;28;20028;-73
2022/09/18 02:13:15;;;;;;;0.30;0.30;;;8.10;99.90;;;;;;5091732;28;20024;-73
2022/09/18 02:15:44;;;;;;;0.20;0.20;;;8.10;99.90;;;;;;5090435;28;20035;-73
2022/09/18 02:18:31;;;;;;;0.32;0.32;;;8.10;99.90;;;;;;5091773;28;20082;-73
2022/09/18 02:20:57;;;;;;;0.20;0.20;;;8.10;99.90;;;;;;5091392;28;20016;-73
2022/09/18 02:23:24;;;;;;;0.10;0.10;;;8.00;99.90;;;;;;5091639;28;20063;-72
2022/09/18 02:25:56;;;;;;;0.20;0.20;;;7.90;99.90;;;;;;5090216;28;20048;-73
2022/09/18 02:28:23;;;;;;;;;;;7.90;99.90;;;;;;5092128;28;20137;-72
2022/09/18 02:30:49;;;;;;;0.15;0.15;;;7.80;99.90;;;;;;5091690;28;20002;-73
2022/09/18 02:33:33;;;;;;;1.70;0.45;;;7.90;99.90;;;;;;5093976;28;20107;-73
2022/09/18 02:36:05;;;;;;;0.63;0.50;;;7.80;99.90;;;;;;5094038;28;20027;-73
2022/09/18 02:38:42;;;;;;;0.75;0.52;;;7.70;99.90;;;;;;5094156;28;20042;-73
2022/09/18 02:41:23;;;;;;;2.63;0.70;;;7.70;99.90;;;;;;5095171;28;20078;-72
2022/09/18 02:43:56;;;;;;;0.70;0.38;;;7.60;99.90;;;;;;5095223;28;20034;-73
2022/09/18 02:46:37;;;;;;;0.10;0.10;;;7.50;99.90;;;;;;5095098;28;20036;-73
2022/09/18 02:49:18;;;;;;;0.10;0.10;;;7.60;99.90;;;;;;5093958;28;20085;-73
2022/09/18 02:52:00;;;;;;;1.08;0.35;;;7.70;99.90;;;;;;5093861;28;20526;-73
2022/09/18 02:54:44;;;;;;;0.20;0.20;;;7.70;99.90;;;;;;5093722;28;20028;-73
2022/09/18 02:57:24;;;;;;;0.40;0.40;;;7.60;99.90;;;;;;5094801;28;20467;-73
2022/09/18 02:59:54;;;;;;;0.75;0.75;;;7.70;99.90;;;;;;5095030;28;20012;-73
2022/09/18 03:02:21;;;;;;;0.20;0.20;;;7.70;99.90;;;;;;5093487;28;20024;-73
2022/09/18 03:04:48;;;;;;;0.10;0.10;;;7.80;99.90;;;;;;5093462;28;20036;-74
2022/09/18 03:07:15;;;;;;;0.20;0.20;;;7.90;99.90;;;;;;5094779;28;20093;-73
2022/09/18 03:09:41;;;;;;;0.30;0.30;;;8.00;99.90;;;;;;5094854;28;20024;-73
2022/09/18 03:12:07;;;;;;;0.20;0.20;;;8.00;99.90;;;;;;5094593;28;20050;-73
2022/09/18 03:14:34;;;;;;;1.92;1.75;;;7.80;99.90;;;;;;5094460;28;20028;-74
2022/09/18 03:17:00;;;;;;;0.10;0.10;;;7.80;99.90;;;;;;5093173;28;20024;-73
2022/09/18 03:19:26;;;;;;;0.20;0.20;;;7.80;99.90;;;;;;5094627;28;20023;-73
2022/09/18 03:21:52;;;;;;;0.10;0.10;;;7.90;99.90;;;;;;5092949;28;20020;-73
2022/09/18 03:24:19;;;;;;;0.10;0.10;;;8.00;99.90;;;;;;5094461;28;20016;-73
2022/09/18 03:26:45;;;;;;;0.10;0.10;;;8.00;99.90;;;;;;5094211;28;20107;-73
2022/09/18 03:29:12;;;;;;;0.25;0.25;;;8.00;99.90;;;;;;5094386;28;20578;-73
2022/09/18 03:31:39;;;;;;;0.13;0.13;;;8.00;99.90;;;;;;5094315;28;20198;-73
2022/09/18 03:34:05;;;;;;;0.47;0.47;;;8.00;99.90;;;;;;5094199;28;20111;-73
2022/09/18 03:36:31;;;;;;;0.10;0.10;;;8.00;99.90;;;;;;5094173;28;20068;-73
2022/09/18 03:38:57;;;;;;;0.10;0.10;;;7.90;99.90;;;;;;5093027;28;20020;-73
2022/09/18 03:41:23;;;;;;;0.22;0.22;;;8.00;99.90;;;;;;5093534;28;20126;-73
2022/09/18 03:43:49;;;;;;;0.20;0.20;;;8.00;99.90;;;;;;5093288;28;20043;-73
2022/09/18 03:46:22;;;;;;;0.10;0.10;;;8.00;99.90;;;;;;5093925;28;20020;-73
2022/09/18 03:48:49;;;;;;;0.10;0.10;;;8.00;99.90;;;;;;5075885;28;20020;-74
2022/09/18 03:51:16;;;;;;;2.70;0.70;;;8.10;99.90;;;;;;5092554;28;20028;-73
2022/09/18 03:53:44;;;;;;;0.57;0.57;;;8.30;99.90;;;;;;5093821;28;20078;-73
2022/09/18 03:56:10;;;;;;;0.22;0.22;;;8.10;99.90;;;;;;5093620;28;20048;-73
2022/09/18 03:58:35;;;;;;;0.17;0.17;;;8.10;99.90;;;;;;5093791;28;20055;-74
2022/09/18 04:01:01;;;;;;;0.20;0.20;;;8.20;99.90;;;;;;5093812;28;20523;-73
2022/09/18 04:03:27;;;;;;;0.15;0.15;;;8.30;99.90;;;;;;5092420;28;20096;-73
2022/09/18 04:05:53;;;;;;;0.20;0.20;;;8.30;99.90;;;;;;5093557;28;20020;-73
2022/09/18 04:08:18;;;;;;;0.20;0.20;;;8.40;99.90;;;;;;5093665;28;20085;-73
2022/09/18 04:10:46;;;;;;;0.50;0.50;;;8.30;99.90;;;;;;5092270;28;20036;-74
2022/09/18 04:13:12;;;;;;;2.13;0.57;;;8.30;99.90;;;;;;5093369;28;20024;-73
2022/09/18 04:15:37;;;;;;;6.32;0.65;;;8.20;99.90;;;;;;5093361;28;20012;-73
2022/09/18 04:18:03;;;;;;;0.30;0.30;;;8.10;99.90;;;;;;5092314;28;20099;-73
2022/09/18 04:20:30;;;;;;;0.28;0.28;;;8.00;99.90;;;;;;5093400;28;20032;-73
2022/09/18 04:22:59;;;;;;;12.95;0.70;;;8.10;99.90;;;;;;5091901;28;20020;-73
2022/09/18 04:25:24;;;;;;;0.10;0.10;;;8.20;99.90;;;;;;5092959;28;20039;-74
2022/09/18 04:27:50;;;;;;;0.45;0.45;;;8.20;99.90;;;;;;5093321;28;20024;-73
2022/09/18 04:30:16;;;;;;;0.17;0.17;;;8.20;99.90;;;;;;5093201;28;20024;-73
2022/09/18 04:32:43;;;;;;;0.50;0.50;;;8.10;99.90;;;;;;5091925;28;20081;-73
2022/09/18 04:35:09;;;;;;;0.20;0.20;;;8.10;99.90;;;;;;5092814;28;20032;-73
2022/09/18 04:37:35;;;;;;;0.90;0.90;;;8.00;99.90;;;;;;5093029;28;20045;-73
2022/09/18 04:40:01;;;;;;;10.65;0.55;;;8.10;99.90;;;;;;5092812;28;20032;-74
2022/09/18 04:42:27;;;;;;;0.10;0.10;;;8.10;99.90;;;;;;5092879;28;20066;-73
2022/09/18 04:44:53;;;;;;;0.25;0.25;;;8.20;99.90;;;;;;5092918;28;20430;-73
2022/09/18 04:47:19;;;;;;;0.28;0.28;;;8.30;99.90;;;;;;5092816;28;20024;-73
2022/09/18 04:49:44;;;;;;;0.10;0.10;;;8.40;99.90;;;;;;5086902;28;20024;-73
2022/09/18 04:52:10;;;;;;;0.40;0.40;;;8.40;99.90;;;;;;5079374;28;20032;-73
2022/09/18 04:54:36;;;;;;;0.20;0.20;;;8.30;99.90;;;;;;5087609;28;20039;-73
2022/09/18 04:57:02;;;;;;;0.10;0.10;;;8.20;99.90;;;;;;5092447;28;20024;-73
2022/09/18 04:59:28;;;;;;;0.10;0.10;;;8.30;99.90;;;;;;5092662;28;20463;-73
2022/09/18 05:01:54;;;;;;;0.10;0.10;;;8.40;99.90;;;;;;5091055;28;20161;-73
2022/09/18 05:04:20;;;;;;;0.30;0.30;;;8.50;99.90;;;;;;5085180;28;20104;-74
2022/09/18 05:06:45;;;;;;;0.22;0.22;;;8.40;99.90;;;;;;5071909;28;20492;-73
2022/09/18 05:09:11;;;;;;;0.90;0.90;;;8.20;99.90;;;;;;5071965;28;20036;-74
2022/09/18 05:11:37;;;;;;;0.88;0.88;;;8.30;99.90;;;;;;5070755;28;20024;-73
2022/09/18 05:14:03;;;;;;;0.45;0.32;;;8.10;99.90;;;;;;5070301;28;20032;-73
2022/09/18 05:16:28;;;;;;;6.32;0.65;;;8.10;99.90;;;;;;5070547;28;20021;-73
2022/09/18 05:18:55;;;;;;;0.35;0.35;;;8.10;99.90;;;;;;5071912;28;20076;-73
2022/09/18 05:21:21;;;;;;;0.10;0.10;;;8.20;99.90;;;;;;5071863;28;20103;-74
2022/09/18 05:23:47;;;;;;;1.13;0.28;;;8.30;99.90;;;;;;5081629;28;20411;-73
2022/09/18 05:26:13;;;;;;;0.10;0.10;;;8.40;99.90;;;;;;5091964;28;20026;-74
2022/09/18 05:28:39;;;;;;;0.20;0.20;;;8.40;99.90;;;;;;5092118;28;20446;-73
2022/09/18 05:31:05;;;;;;;0.10;0.10;;;8.30;99.90;;;;;;5090892;28;20035;-73
2022/09/18 05:33:31;;;;;;;3.42;0.73;;;8.30;99.90;;;;;;5091808;28;20038;-73
2022/09/18 05:35:58;;;;;;;0.10;0.10;;;8.20;99.90;;;;;;5091758;28;20107;-73
2022/09/18 05:38:25;;;;;;;0.10;0.10;;;8.10;99.90;;;;;;5091773;28;20050;-73
2022/09/18 05:40:51;;;;;;;0.20;0.20;;;8.20;99.90;;;;;;5091741;28;20028;-73
2022/09/18 05:43:17;;;;;;;0.50;0.50;;;8.10;99.90;;;;;;5087327;28;20477;-73
2022/09/18 05:45:43;;;;;;;1.17;0.38;;;8.20;99.90;;;;;;5070284;28;20021;-73
2022/09/18 05:48:11;;;;;;;6.63;0.65;;;8.20;99.90;;;;;;5071683;28;20104;-73
2022/09/18 05:50:37;;;;;;;0.20;0.20;;;8.30;99.90;;;;;;5070240;28;20484;-73
2022/09/18 05:53:10;;;;;;;0.90;0.55;;;8.20;99.90;;;;;;5071351;28;20025;-73
2022/09/18 05:55:36;;;;;;;0.38;0.38;;;8.20;99.90;;;;;;5071404;28;20115;-73
2022/09/18 05:58:05;;;;;;;0.20;0.20;;;8.20;99.90;;;;;;5082770;28;20424;-73
2022/09/18 06:00:33;;;;;;;0.10;0.10;;;8.20;99.90;;;;;;5092033;28;20013;-73
2022/09/18 06:03:05;;;;;;;0.20;0.20;;;8.30;99.90;;;;;;5090488;28;20051;-73
2022/09/18 06:05:33;;;;;;;0.25;0.25;;;8.20;99.90;;;;;;5091250;28;20024;-73
2022/09/18 06:08:01;;;;;;;0.32;0.32;;;8.10;99.90;;;;;;5081385;28;20032;-73
2022/09/18 06:10:28;;;;;;;0.10;0.10;;;8.20;99.90;;;;;;5091968;28;20027;-73
2022/09/18 06:13:12;;;;;;;0.10;0.10;;;8.20;99.90;;;;;;5095687;28;20036;-73
2022/09/18 06:15:38;;;;;;;0.20;0.20;;;8.20;99.90;;;;;;5095269;28;20476;-73
2022/09/18 06:18:05;;;;;;;0.20;0.20;;;8.30;99.90;;;;;;5094352;28;20418;-73
2022/09/18 06:20:31;;;;;;;0.15;0.15;;;8.10;99.90;;;;;;5094412;28;20016;-74
2022/09/18 06:22:59;;;;;;;0.32;0.22;;;8.10;99.90;;;;;;5094233;28;20042;-73
2022/09/18 06:25:24;;;;;;;0.22;0.22;;;8.10;99.90;;;;;;5095519;28;20052;-73
2022/09/18 06:27:57;;;;;;;0.47;0.47;;;8.00;99.90;;;;;;5095695;28;20553;-73
2022/09/18 06:30:31;;;;;;;5.72;1.63;;;8.00;99.90;;;;;;5094324;28;20036;-73
2022/09/18 06:33:05;;;;;;;0.75;0.75;;;8.00;99.90;;;;;;5095382;28;20024;-73
2022/09/18 06:35:35;;;;;;;0.52;0.52;;;8.10;99.90;;;;;;5095318;28;20071;-73
2022/09/18 06:38:02;;;;;;;0.20;0.20;;;8.10;99.90;;;;;;5094249;28;20048;-73
2022/09/18 06:40:32;;;;;;;0.20;0.20;;;8.20;99.90;;;;;;5094236;28;20055;-74
2022/09/18 06:42:58;;;;;;;0.20;0.20;;;8.40;99.90;;;;;;5094746;28;20016;-73
2022/09/18 06:45:25;;;;;;;0.20;0.20;;;8.30;99.90;;;;;;5094956;28;20407;-73
2022/09/18 06:47:53;;;;;;;6.25;1.05;;;8.20;99.90;;;;;;5095164;28;20090;-73
2022/09/18 06:50:22;;;;;;;0.10;0.10;;;8.10;99.90;;;;;;5095137;28;20020;-73
2022/09/18 06:52:48;;;;;;;1.95;0.77;;;8.10;99.90;;;;;;5095035;28;20028;-73
2022/09/18 06:55:15;;;;;;;0.93;0.93;;;8.30;99.90;;;;;;5094750;28;20392;-73
2022/09/18 06:57:41;;;;;;;0.20;0.20;;;8.20;99.90;;;;;;5093584;28;20463;-73
2022/09/18 07:00:08;;;;;;;0.10;0.10;;;8.20;99.90;;;;;;5093747;28;20472;-73
2022/09/18 07:02:35;;;;;;;0.10;0.10;;;8.20;99.90;;;;;;5093530;28;20028;-73
2022/09/18 07:05:01;;;;;;;0.30;0.30;;;8.20;99.90;;;;;;5093515;28;20024;-73
2022/09/18 07:07:26;;;;;;;0.10;0.10;;;8.20;99.90;;;;;;5085962;28;20498;-73
2022/09/18 07:09:52;;;;;;;0.20;0.20;;;8.20;99.90;;;;;;5081235;28;20035;-73
2022/09/18 07:12:18;;;;;;;0.25;0.25;;;8.10;99.90;;;;;;5090207;28;20476;-73
2022/09/18 07:14:43;;;;;;;2.47;1.10;;;8.20;99.90;;;;;;5094479;28;20534;-73
2022/09/18 07:17:10;;;;;;;0.40;0.40;;;8.10;99.90;;;;;;5094046;28;20020;-73
2022/09/18 07:19:37;;;;;;;0.13;0.13;;;8.20;99.90;;;;;;5094197;28;20024;-73
2022/09/18 07:22:03;;;;;;;0.10;0.10;;;8.20;99.90;;;;;;5094393;28;20024;-73
2022/09/18 07:24:29;;;;;;;2.55;0.47;;;8.30;99.90;;;;;;5094258;28;20032;-73
2022/09/18 07:26:56;;;;;;;0.20;0.20;;;8.40;99.90;;;;;;5092860;28;20024;-73
2022/09/18 07:29:22;;;;;;;0.22;0.22;;;8.50;99.90;;;;;;5094189;28;20028;-73
2022/09/18 07:31:48;;;;;;;0.10;0.10;;;8.50;99.90;;;;;;5092906;28;20028;-73
2022/09/18 07:34:13;;;;;;;0.10;0.10;;;8.70;99.90;;;;;;5094217;28;20324;-73
2022/09/18 07:36:39;;;;;;;0.20;0.20;;;8.70;99.90;;;;;;5094014;28;20116;-73
2022/09/18 07:39:05;;;;;;;0.10;0.10;;;8.60;99.90;;;;;;5092450;28;20747;-74
2022/09/18 07:41:31;;;;;;;0.35;0.35;;;8.60;99.90;;;;;;5083513;28;20062;-73
2022/09/18 07:43:57;;;;;;;0.28;0.28;;;8.60;99.90;;;;;;5080976;28;20026;-73
2022/09/18 07:46:22;;;;;;;1.08;0.82;;;8.60;99.90;;;;;;5093910;28;20103;-73
2022/09/18 07:48:48;;;;;;;0.57;0.57;;;8.60;99.90;;;;;;5092806;28;20024;-73
2022/09/18 07:51:14;;;;;;;0.30;0.30;;;8.60;99.90;;;;;;5093938;28;20036;-73
2022/09/18 07:53:40;;;;;;;0.30;0.30;;;8.70;99.90;;;;;;5093257;28;20043;-73
2022/09/18 07:56:10;;;;;;;0.22;0.22;;;8.50;99.90;;;;;;5092429;28;20548;-73
2022/09/18 07:58:36;;;;;;;0.28;0.28;;;8.70;99.90;;;;;;5086322;28;20095;-73
2022/09/18 08:01:03;;;;;;;0.10;0.10;;;8.70;99.90;;;;;;5084828;28;20107;-73
2022/09/18 08:03:30;;;;;;;1.77;0.85;;;8.80;99.90;;;;;;5079521;28;20480;-73
2022/09/18 08:05:56;;;;;;;0.20;0.20;;;8.70;99.90;;;;;;5073202;28;20051;-73
2022/09/18 08:08:22;;;;;;;0.40;0.40;;;8.60;99.90;;;;;;5092483;28;20443;-73
2022/09/18 08:10:48;;;;;;;0.10;0.10;;;8.50;99.90;;;;;;5093400;28;20484;-73
2022/09/18 08:13:14;;;;;;;0.35;0.35;;;8.60;99.90;;;;;;5093321;28;20035;-73
2022/09/18 08:15:42;;;;;;;0.10;0.10;;;8.70;99.90;;;;;;5083033;28;20029;-73
2022/09/18 08:18:10;;;;;;;0.10;0.10;;;8.80;99.90;;;;;;5073081;28;20021;-73
2022/09/18 08:20:36;;;;;;;0.40;0.40;;;8.70;99.90;;;;;;5071719;28;20024;-73
2022/09/18 08:23:05;;;;;;;0.10;0.10;;;8.60;99.90;;;;;;5072908;28;20024;-73
2022/09/18 08:25:31;;;;;;;0.57;0.57;;;8.60;99.90;;;;;;5071464;28;20020;-73
2022/09/18 08:28:01;;;;;;;1.13;0.50;;;8.70;99.90;;;;;;5075325;28;20043;-74
2022/09/18 08:30:27;;;;;;;0.35;0.32;;;8.70;99.90;;;;;;5092976;28;20031;-73
2022/09/18 08:33:01;;;;;;;0.30;0.30;;;8.60;99.90;;;;;;5071386;28;20017;-73
2022/09/18 08:35:28;;;;;;;0.10;0.10;;;8.80;99.90;;;;;;5072410;28;20028;-74
2022/09/18 08:37:54;;;;;;;0.32;0.32;;;8.80;99.90;;;;;;5072730;28;20029;-73
2022/09/18 08:40:29;;;;;;;3.63;2.45;;;8.90;99.90;;;;;;5072512;28;20042;-73
2022/09/18 08:42:58;;;;;;;0.17;0.17;;;8.90;99.90;;;;;;5071580;28;20028;-73
2022/09/18 08:45:43;;;;;;;0.38;0.38;;;8.80;99.90;;;;;;5054433;28;20392;-73
2022/09/18 08:48:16;;;;;;;0.30;0.30;;;8.80;99.90;;;;;;5071175;28;20480;-73
2022/09/18 08:50:48;;;;;;;0.10;0.10;;;8.90;99.90;;;;;;5072495;28;20021;-75
2022/09/18 08:53:22;;;;;;;0.10;0.10;;;8.80;99.90;;;;;;5053592;28;20044;-74
2022/09/18 08:55:50;;;;;;;0.20;0.20;;;8.70;99.90;;;;;;5071374;28;20024;-73
2022/09/18 08:58:29;;;;;;;0.40;0.40;;;8.60;99.90;;;;;;5072404;28;20049;-74
2022/09/18 09:01:05;;;;;;;0.20;0.20;;;8.80;99.90;;;;;;5071001;28;20024;-74
2022/09/18 09:03:56;;;;;;;0.20;0.20;;;8.80;99.90;;;;;;5054297;28;20028;-75
2022/09/18 09:06:37;;;;;;;4.40;0.70;;;8.90;99.90;;;;;;5071909;28;20051;-75
2022/09/18 09:09:09;;;;;;;5.07;1.00;;;8.70;99.90;;;;;;5072224;28;20424;-75
2022/09/18 09:11:44;;;;;;;0.85;0.85;;;8.60;99.90;;;;;;5072239;28;20028;-75
2022/09/18 09:14:23;;;;;;;0.73;0.73;;;8.70;99.90;;;;;;5070765;28;20052;-75
2022/09/18 09:17:19;;;;;;;0.10;0.10;;;8.70;99.90;;;;;;5071944;28;20480;-75
2022/09/18 09:20:11;;;;;;;0.43;0.30;;;8.70;99.90;;;;;;5063783;28;20130;-75
2022/09/18 09:22:43;;;;;;;1.60;0.68;;;8.70;99.90;;;;;;5072065;28;20016;-75
2022/09/18 09:25:36;;;;;;;0.13;0.13;;;8.70;99.90;;;;;;5053826;28;20027;-75
2022/09/18 09:28:19;;;;;;;1.50;0.52;;;8.80;99.90;;;;;;5072012;28;20024;-75
2022/09/18 09:30:51;;;;;;;0.20;0.20;;;8.80;99.90;;;;;;5071947;28;20025;-75
2022/09/18 09:33:22;;;;;;;1.23;1.00;;;8.90;99.90;;;;;;5071676;28;20519;-75
2022/09/18 09:35:53;;;;;;;0.10;0.10;;;8.90;99.90;;;;;;5053753;28;20028;-75
2022/09/18 09:38:41;;;;;;;0.38;0.38;;;9.20;99.90;;;;;;5070682;28;20029;-75
2022/09/18 09:41:25;;;;;;;1.38;0.93;;;9.20;99.90;;;;;;5070389;28;20024;-75
2022/09/18 09:43:59;;;;;;;2.17;0.47;;;9.10;99.90;;;;;;5071807;28;20021;-75
2022/09/18 09:46:25;;;;;;;0.43;0.43;;;9.10;99.90;;;;;;5071693;28;20025;-75
2022/09/18 09:49:04;;;;;;;0.15;0.15;;;9.20;99.90;;;;;;5071776;28;20025;-75
2022/09/18 09:51:42;;;;;;;0.30;0.30;;;9.30;99.90;;;;;;5070449;28;20040;-75
2022/09/18 09:54:10;;;;;;;0.10;0.10;;;9.40;99.90;;;;;;5071623;28;20024;-75
2022/09/18 09:56:45;;;;;;;0.30;0.30;;;9.50;99.90;;;;;;5070404;28;20017;-75
2022/09/18 09:59:28;;;;;;;0.10;0.10;;;9.50;99.90;;;;;;5070451;28;20079;-75
2022/09/18 10:02:03;;;;;;;0.10;0.10;;;9.50;99.90;;;;;;5071649;28;20077;-75
2022/09/18 10:04:43;;;;;;;1.30;1.20;;;9.40;99.90;;;;;;5071355;28;20460;-75
2022/09/18 10:07:15;;;;;;;0.20;0.20;;;9.50;99.90;;;;;;5071554;28;20028;-75
2022/09/18 10:09:49;;;;;;;0.50;0.50;;;9.60;99.90;;;;;;5071539;28;20092;-75
2022/09/18 10:12:28;;;;;;;0.10;0.10;;;9.70;99.90;;;;;;5071659;28;20020;-75
2022/09/18 10:14:57;;;;;;;0.90;0.73;;;9.80;99.90;;;;;;5071393;28;20025;-75
2022/09/18 10:17:24;;;;;;;0.13;0.13;;;9.80;99.90;;;;;;5071548;28;20381;-75
2022/09/18 10:19:52;;;;;;;0.40;0.40;;;9.90;99.90;;;;;;5071535;28;20032;-74
2022/09/18 10:22:22;;;;;;;3.60;0.75;;;10.10;99.90;;;;;;5071414;28;20040;-73
2022/09/18 10:24:52;;;;;;;0.22;0.22;;;10.10;99.90;;;;;;5070310;28;20051;-74
2022/09/18 10:27:18;;;;;;;0.10;0.10;;;10.20;99.90;;;;;;5071312;28;20036;-73
2022/09/18 10:29:44;;;;;;;0.28;0.28;;;10.20;99.90;;;;;;5071429;28;20060;-74
2022/09/18 10:32:11;;;;;;;0.10;0.10;;;10.30;99.90;;;;;;5069963;28;20039;-74
2022/09/18 10:34:42;;;;;;;0.52;0.50;;;10.30;99.90;;;;;;5071163;28;20116;-73
2022/09/18 10:37:29;;;;;;;0.20;0.20;;;10.40;99.90;;;;;;5071277;28;20017;-74
2022/09/18 10:39:58;;;;;;;0.13;0.13;;;10.30;99.90;;;;;;5070088;28;20025;-74
2022/09/18 10:42:35;;;;;;;1.00;0.90;;;10.20;99.90;;;;;;5071445;28;20671;-73
2022/09/18 10:45:04;;;;;;;1.65;0.50;;;10.40;99.90;;;;;;5071151;28;20032;-74
2022/09/18 10:47:32;;;;;;;0.30;0.30;;;10.40;99.90;;;;;;5071196;28;20024;-74
2022/09/18 10:50:10;;;;;;;3.30;0.40;;;10.30;99.90;;;;;;5071275;28;20481;-73
2022/09/18 10:52:40;;;;;;;0.22;0.22;;;10.30;99.90;;;;;;5073486;28;20522;-73
2022/09/18 10:55:08;;;;;;;0.30;0.30;;;10.40;99.90;;;;;;5073244;28;20021;-74
2022/09/18 10:57:34;;;;;;;0.73;0.40;;;10.40;99.90;;;;;;5074743;28;20668;-74
2022/09/18 11:00:03;;;;;;;0.13;0.13;;;10.60;99.90;;;;;;5074674;28;20020;-74
2022/09/18 11:02:38;;;;;;;0.10;0.10;;;10.70;99.90;;;;;;5074494;28;20025;-74
2022/09/18 11:05:04;;;;;;;1.08;0.50;;;11.00;99.90;;;;;;5074204;28;20112;-74
2022/09/18 11:07:30;;;;;;;2.58;0.60;;;10.90;99.90;;;;;;5074597;28;20473;-74
2022/09/18 11:09:56;;;;;;;0.13;0.13;;;10.70;99.90;;;;;;5074502;28;20021;-74
2022/09/18 11:12:25;;;;;;;0.10;0.10;;;10.70;99.90;;;;;;5074553;28;20396;-74
2022/09/18 11:15:06;;;;;;;0.40;0.40;;;10.80;99.90;;;;;;5073104;28;20074;-74
2022/09/18 11:17:41;;;;;;;0.30;0.30;;;10.70;99.90;;;;;;5073275;28;20020;-74
2022/09/18 11:20:25;;;;;;;0.73;0.70;;;10.70;99.90;;;;;;5073246;28;20380;-74
2022/09/18 11:22:52;;;;;;;0.40;0.40;;;10.70;99.90;;;;;;5074262;28;20029;-74
2022/09/18 11:25:26;;;;;;;0.20;0.20;;;10.60;99.90;;;;;;5074072;28;20389;-75
2022/09/18 11:27:54;;;;;;;0.63;0.55;;;10.60;99.90;;;;;;5074264;28;20024;-74
2022/09/18 11:30:27;;;;;;;0.10;0.10;;;10.70;99.90;;;;;;5072990;28;20028;-75
2022/09/18 11:33:17;;;;;;;0.10;0.10;;;10.60;99.90;;;;;;5074181;28;20082;-75
2022/09/18 11:35:45;;;;;;;0.25;0.25;;;10.70;99.90;;;;;;5073961;28;20032;-74
2022/09/18 11:38:18;;;;;;;0.20;0.20;;;10.70;99.90;;;;;;5074204;28;20580;-74
2022/09/18 11:40:49;;;;;;;0.50;0.50;;;10.80;99.90;;;;;;5072698;28;20496;-74
2022/09/18 11:43:27;;;;;;;0.10;0.10;;;10.70;99.90;;;;;;5072569;28;20025;-74
2022/09/18 11:46:00;;;;;;;0.20;0.20;;;10.70;99.90;;;;;;5073557;28;20017;-74
2022/09/18 11:48:33;;;;;;;0.43;0.43;;;10.60;99.90;;;;;;5072616;28;20392;-74
2022/09/18 11:51:03;;;;;;;0.52;0.52;;;10.60;99.90;;;;;;5073807;28;20020;-74
2022/09/18 11:53:34;;;;;;;0.20;0.20;;;10.60;99.90;;;;;;5072418;28;20024;-74
2022/09/18 11:56:09;;;;;;;0.10;0.10;;;10.60;99.90;;;;;;5073511;28;20024;-74
2022/09/18 11:58:56;;;;;;;0.20;0.20;;;10.70;99.90;;;;;;5072484;28;20020;-74
2022/09/18 12:01:34;;;;;;;0.10;0.10;;;10.80;99.90;;;;;;5072361;28;20439;-74
2022/09/18 12:04:06;;;;;;;0.32;0.32;;;11.00;99.90;;;;;;5072373;28;20029;-74
2022/09/18 12:06:47;;;;;;;0.30;0.30;;;11.10;99.90;;;;;;5055173;28;20178;-74
2022/09/18 12:09:36;;;;;;;1.45;0.75;;;11.40;99.90;;;;;;5073407;28;20484;-74
2022/09/18 12:12:12;;;;;;;0.32;0.32;;;11.40;99.90;;;;;;5072066;28;20024;-74
2022/09/18 12:14:50;;;;;;;0.50;0.43;;;11.50;99.90;;;;;;5073103;28;20476;-74
2022/09/18 12:17:41;;;;;;;0.95;0.95;;;11.50;99.90;;;;;;5073291;28;20108;-74
2022/09/18 12:20:27;;;;;;;1.42;0.63;;;11.40;99.90;;;;;;5055370;28;20477;-74
2022/09/18 12:22:56;;;;;;;0.20;0.20;;;11.40;99.90;;;;;;5071885;28;20031;-74
2022/09/18 12:25:42;;;;;;;0.10;0.10;;;11.50;99.90;;;;;;5073126;28;20021;-74
2022/09/18 12:28:28;;;;;;;0.52;0.30;;;11.40;99.90;;;;;;5073084;28;20028;-74
2022/09/18 12:31:21;;;;;;;0.20;0.20;;;11.40;99.90;;;;;;5072942;28;20384;-74
2022/09/18 12:33:57;;;;;;;0.20;0.20;;;11.40;99.90;;;;;;5072779;28;20024;-74
2022/09/18 12:36:44;;;;;;;0.17;0.17;;;11.50;99.90;;;;;;5071505;28;20020;-74
2022/09/18 12:39:54;;;;;;;0.30;0.30;;;11.70;99.90;;;;;;5072835;28;20024;-74
2022/09/18 12:42:57;;;;;;;1.88;0.60;;;11.80;99.90;;;;;;5071421;28;20056;-74
2022/09/18 12:46:07;;;;;;;0.10;0.10;;;11.70;99.90;;;;;;5072486;28;20374;-75
2022/09/18 12:48:56;;;;;;;0.22;0.22;;;11.80;99.90;;;;;;5033464;28;20028;-75
2022/09/18 12:51:58;;;;;;;0.32;0.30;;;11.80;99.90;;;;;;5050352;28;20035;-74
2022/09/18 12:54:57;;;;;;;0.10;0.10;;;11.60;99.90;;;;;;5069487;28;20040;-74
2022/09/18 12:57:37;;;;;;;0.55;0.55;;;11.20;99.90;;;;;;5072623;28;20485;-74
2022/09/18 13:00:11;;;;;;;0.10;0.10;;;11.10;99.90;;;;;;5072503;28;20480;-74
2022/09/18 13:02:53;;;;;;;0.20;0.20;;;11.30;99.90;;;;;;5072421;28;20069;-74
2022/09/18 13:05:31;;;;;;;0.40;0.40;;;11.30;99.90;;;;;;5071858;28;20023;-74
2022/09/18 13:08:23;;;;;;;0.10;0.10;;;11.50;99.90;;;;;;5072225;28;20452;-74
2022/09/18 13:10:54;;;;;;;0.52;0.52;;;11.60;99.90;;;;;;5072235;28;20455;-75
2022/09/18 13:13:47;;;;;;;0.13;0.13;;;11.50;99.90;;;;;;5070777;28;20107;-74
2022/09/18 13:16:47;;;;;;;1.85;0.73;;;11.90;99.90;;;;;;5071791;28;20555;-74
2022/09/18 13:19:24;;;;;;;0.10;0.10;;;11.70;99.90;;;;;;5072216;28;20020;-74
2022/09/18 13:21:51;;;;;;;0.30;0.30;;;11.80;99.90;;;;;;5070770;28;20162;-74